Terminal Aerodrome Forecast
Issued by NWS

Home | Current Version | Previous Version | Text Only | Print | Product List | Glossary On
Versions: 1 2 3 4 5 6 7 8 9 10 11 12 13 14 15
000
FTUS46 KSGX 281736
TAFCRQ
TAF
KCRQ 281736Z 2818/2918 33003KT P6SM SCT120
     FM281900 25008KT P6SM SCT100 SCT150
     FM290100 VRB04KT P6SM SCT080=

USA.gov is the U.S. government's official web portal to all federal, state and local government web resources and services.